sensor_id;sensor_type;location;lat;lon;timestamp;temperature;humidity
16408;DHT22;8313;49.894;8.084;2023-02-01T00:01:54;5.50;99.90
16408;DHT22;8313;49.894;8.084;2023-02-01T00:04:20;5.50;99.90
16408;DHT22;8313;49.894;8.084;2023-02-01T00:06:46;5.60;99.90
16408;DHT22;8313;49.894;8.084;2023-02-01T00:09:12;5.50;99.90
16408;DHT22;8313;49.894;8.084;2023-02-01T00:11:38;5.60;99.90
16408;DHT22;8313;49.894;8.084;2023-02-01T00:14:04;5.60;99.90
16408;DHT22;8313;49.894;8.084;2023-02-01T00:16:31;5.60;99.90
16408;DHT22;8313;49.894;8.084;2023-02-01T00:18:59;5.50;99.90
16408;DHT22;8313;49.894;8.084;2023-02-01T00:21:25;5.50;99.90
16408;DHT22;8313;49.894;8.084;2023-02-01T00:23:50;5.50;99.90
16408;DHT22;8313;49.894;8.084;2023-02-01T00:28:49;5.50;99.90
16408;DHT22;8313;49.894;8.084;2023-02-01T00:31:14;5.60;99.90
16408;DHT22;8313;49.894;8.084;2023-02-01T00:33:40;5.50;99.90
16408;DHT22;8313;49.894;8.084;2023-02-01T00:36:07;5.50;99.90
16408;DHT22;8313;49.894;8.084;2023-02-01T00:38:36;5.50;99.90
16408;DHT22;8313;49.894;8.084;2023-02-01T00:41:11;5.50;99.90
16408;DHT22;8313;49.894;8.084;2023-02-01T00:43:38;5.50;99.90
16408;DHT22;8313;49.894;8.084;2023-02-01T00:46:03;5.50;99.90
16408;DHT22;8313;49.894;8.084;2023-02-01T00:48:30;5.50;99.90
16408;DHT22;8313;49.894;8.084;2023-02-01T00:51:06;5.50;99.90
16408;DHT22;8313;49.894;8.084;2023-02-01T00:53:32;5.50;99.90
16408;DHT22;8313;49.894;8.084;2023-02-01T00:55:58;5.60;99.90
16408;DHT22;8313;49.894;8.084;2023-02-01T00:58:24;5.60;99.90
16408;DHT22;8313;49.894;8.084;2023-02-01T01:01:17;5.60;99.90
16408;DHT22;8313;49.894;8.084;2023-02-01T01:03:46;5.60;99.90
16408;DHT22;8313;49.894;8.084;2023-02-01T01:06:14;5.60;99.90
16408;DHT22;8313;49.894;8.084;2023-02-01T01:08:41;5.60;99.90
16408;DHT22;8313;49.894;8.084;2023-02-01T01:11:11;5.60;99.90
16408;DHT22;8313;49.894;8.084;2023-02-01T01:13:37;5.60;99.90
16408;DHT22;8313;49.894;8.084;2023-02-01T01:16:04;5.60;99.90
16408;DHT22;8313;49.894;8.084;2023-02-01T01:18:31;5.60;99.90
16408;DHT22;8313;49.894;8.084;2023-02-01T01:20:58;5.60;99.90
16408;DHT22;8313;49.894;8.084;2023-02-01T01:23:24;5.60;99.90
16408;DHT22;8313;49.894;8.084;2023-02-01T01:25:50;5.60;99.90
16408;DHT22;8313;49.894;8.084;2023-02-01T01:28:16;5.60;99.90
16408;DHT22;8313;49.894;8.084;2023-02-01T01:30:41;5.60;99.90
16408;DHT22;8313;49.894;8.084;2023-02-01T01:33:07;5.60;99.90
16408;DHT22;8313;49.894;8.084;2023-02-01T01:35:33;5.60;99.90
16408;DHT22;8313;49.894;8.084;2023-02-01T01:37:59;5.60;99.90
16408;DHT22;8313;49.894;8.084;2023-02-01T01:40:27;5.60;99.90
16408;DHT22;8313;49.894;8.084;2023-02-01T01:42:53;5.60;99.90
16408;DHT22;8313;49.894;8.084;2023-02-01T01:45:26;5.60;99.90
16408;DHT22;8313;49.894;8.084;2023-02-01T01:47:55;5.60;99.90
16408;DHT22;8313;49.894;8.084;2023-02-01T01:50:56;5.60;99.90
16408;DHT22;8313;49.894;8.084;2023-02-01T01:53:34;5.60;99.90
16408;DHT22;8313;49.894;8.084;2023-02-01T01:56:02;5.60;99.90
16408;DHT22;8313;49.894;8.084;2023-02-01T01:58:29;5.70;99.90
16408;DHT22;8313;49.894;8.084;2023-02-01T02:00:57;5.60;99.90
16408;DHT22;8313;49.894;8.084;2023-02-01T02:03:32;5.60;99.90
16408;DHT22;8313;49.894;8.084;2023-02-01T02:06:01;5.60;99.90
16408;DHT22;8313;49.894;8.084;2023-02-01T02:08:27;5.60;99.90
16408;DHT22;8313;49.894;8.084;2023-02-01T02:10:53;5.60;99.90
16408;DHT22;8313;49.894;8.084;2023-02-01T02:13:39;5.60;99.90
16408;DHT22;8313;49.894;8.084;2023-02-01T02:24:32;5.60;99.90
16408;DHT22;8313;49.894;8.084;2023-02-01T02:38:35;5.70;99.90
16408;DHT22;8313;49.894;8.084;2023-02-01T02:43:44;5.70;99.90
16408;DHT22;8313;49.894;8.084;2023-02-01T02:46:38;5.70;99.90
16408;DHT22;8313;49.894;8.084;2023-02-01T02:49:36;5.70;99.90
16408;DHT22;8313;49.894;8.084;2023-02-01T02:52:09;5.70;99.90
16408;DHT22;8313;49.894;8.084;2023-02-01T02:54:56;5.70;99.90
16408;DHT22;8313;49.894;8.084;2023-02-01T03:00:15;5.70;99.90
16408;DHT22;8313;49.894;8.084;2023-02-01T03:03:01;5.70;99.90
16408;DHT22;8313;49.894;8.084;2023-02-01T03:05:47;5.70;99.90
16408;DHT22;8313;49.894;8.084;2023-02-01T03:08:22;5.70;99.90
16408;DHT22;8313;49.894;8.084;2023-02-01T03:24:07;5.70;99.90
16408;DHT22;8313;49.894;8.084;2023-02-01T03:26:37;5.70;99.90
16408;DHT22;8313;49.894;8.084;2023-02-01T03:29:13;5.70;99.90
16408;DHT22;8313;49.894;8.084;2023-02-01T03:31:41;5.70;99.90
16408;DHT22;8313;49.894;8.084;2023-02-01T03:34:08;5.70;99.90
16408;DHT22;8313;49.894;8.084;2023-02-01T03:36:40;5.70;99.90
16408;DHT22;8313;49.894;8.084;2023-02-01T03:41:53;5.70;99.90
16408;DHT22;8313;49.894;8.084;2023-02-01T03:44:26;5.60;99.90
16408;DHT22;8313;49.894;8.084;2023-02-01T03:49:39;5.70;99.90
16408;DHT22;8313;49.894;8.084;2023-02-01T03:52:07;5.60;99.90
16408;DHT22;8313;49.894;8.084;2023-02-01T03:54:35;5.70;99.90
16408;DHT22;8313;49.894;8.084;2023-02-01T03:57:06;5.70;99.90
16408;DHT22;8313;49.894;8.084;2023-02-01T03:59:34;5.60;99.90
16408;DHT22;8313;49.894;8.084;2023-02-01T04:02:00;5.60;99.90
16408;DHT22;8313;49.894;8.084;2023-02-01T04:04:26;5.60;99.90
16408;DHT22;8313;49.894;8.084;2023-02-01T04:06:53;5.60;99.90
16408;DHT22;8313;49.894;8.084;2023-02-01T04:09:19;5.60;99.90
16408;DHT22;8313;49.894;8.084;2023-02-01T04:11:45;5.60;99.90
16408;DHT22;8313;49.894;8.084;2023-02-01T04:14:11;5.60;99.90
16408;DHT22;8313;49.894;8.084;2023-02-01T04:16:36;5.60;99.90
16408;DHT22;8313;49.894;8.084;2023-02-01T04:19:02;5.60;99.90
16408;DHT22;8313;49.894;8.084;2023-02-01T04:21:28;5.60;99.90
16408;DHT22;8313;49.894;8.084;2023-02-01T04:23:54;5.60;99.90
16408;DHT22;8313;49.894;8.084;2023-02-01T04:26:20;5.60;99.90
16408;DHT22;8313;49.894;8.084;2023-02-01T04:28:47;5.60;99.90
16408;DHT22;8313;49.894;8.084;2023-02-01T04:31:16;5.50;99.90
16408;DHT22;8313;49.894;8.084;2023-02-01T04:33:43;5.50;99.90
16408;DHT22;8313;49.894;8.084;2023-02-01T04:36:09;5.50;99.90
16408;DHT22;8313;49.894;8.084;2023-02-01T04:38:34;5.50;99.90
16408;DHT22;8313;49.894;8.084;2023-02-01T04:41:00;5.50;99.90
16408;DHT22;8313;49.894;8.084;2023-02-01T04:43:26;5.50;99.90
16408;DHT22;8313;49.894;8.084;2023-02-01T04:45:52;5.50;99.90
16408;DHT22;8313;49.894;8.084;2023-02-01T04:48:20;5.50;99.90
16408;DHT22;8313;49.894;8.084;2023-02-01T04:50:46;5.50;99.90
16408;DHT22;8313;49.894;8.084;2023-02-01T04:53:17;5.50;99.90
16408;DHT22;8313;49.894;8.084;2023-02-01T04:55:43;5.50;99.90
16408;DHT22;8313;49.894;8.084;2023-02-01T04:58:10;5.50;99.90
16408;DHT22;8313;49.894;8.084;2023-02-01T05:00:36;5.40;99.90
16408;DHT22;8313;49.894;8.084;2023-02-01T05:03:02;5.40;99.90
16408;DHT22;8313;49.894;8.084;2023-02-01T05:05:28;5.40;99.90
16408;DHT22;8313;49.894;8.084;2023-02-01T05:07:54;5.40;99.90
16408;DHT22;8313;49.894;8.084;2023-02-01T05:10:20;5.40;99.90
16408;DHT22;8313;49.894;8.084;2023-02-01T05:12:46;5.30;99.90
16408;DHT22;8313;49.894;8.084;2023-02-01T05:15:31;5.30;99.90
16408;DHT22;8313;49.894;8.084;2023-02-01T05:17:57;5.20;99.90
16408;DHT22;8313;49.894;8.084;2023-02-01T05:20:24;5.20;99.90
16408;DHT22;8313;49.894;8.084;2023-02-01T05:22:50;5.20;99.90
16408;DHT22;8313;49.894;8.084;2023-02-01T05:25:16;5.20;99.90
16408;DHT22;8313;49.894;8.084;2023-02-01T05:27:42;5.20;99.90
16408;DHT22;8313;49.894;8.084;2023-02-01T05:30:08;5.20;99.90
16408;DHT22;8313;49.894;8.084;2023-02-01T05:32:34;5.20;99.90
16408;DHT22;8313;49.894;8.084;2023-02-01T05:35:00;5.20;99.90
16408;DHT22;8313;49.894;8.084;2023-02-01T05:37:26;5.20;99.90
16408;DHT22;8313;49.894;8.084;2023-02-01T05:39:51;5.20;99.90
16408;DHT22;8313;49.894;8.084;2023-02-01T05:42:17;5.20;99.90
16408;DHT22;8313;49.894;8.084;2023-02-01T05:44:43;5.20;99.90
16408;DHT22;8313;49.894;8.084;2023-02-01T05:47:09;5.20;99.90
16408;DHT22;8313;49.894;8.084;2023-02-01T05:49:35;5.20;99.90
16408;DHT22;8313;49.894;8.084;2023-02-01T05:52:01;5.20;99.90
16408;DHT22;8313;49.894;8.084;2023-02-01T05:54:26;5.20;99.90
16408;DHT22;8313;49.894;8.084;2023-02-01T05:56:52;5.20;99.90
16408;DHT22;8313;49.894;8.084;2023-02-01T05:59:18;5.20;99.90
16408;DHT22;8313;49.894;8.084;2023-02-01T06:01:43;5.20;99.90
16408;DHT22;8313;49.894;8.084;2023-02-01T06:04:09;5.20;99.90
16408;DHT22;8313;49.894;8.084;2023-02-01T06:06:35;5.20;99.90
16408;DHT22;8313;49.894;8.084;2023-02-01T06:09:02;5.30;99.90
16408;DHT22;8313;49.894;8.084;2023-02-01T06:11:28;5.30;99.90
16408;DHT22;8313;49.894;8.084;2023-02-01T06:13:54;5.20;99.90
16408;DHT22;8313;49.894;8.084;2023-02-01T06:16:21;5.30;99.90
16408;DHT22;8313;49.894;8.084;2023-02-01T06:18:47;5.40;99.90
16408;DHT22;8313;49.894;8.084;2023-02-01T06:21:12;5.30;99.90
16408;DHT22;8313;49.894;8.084;2023-02-01T06:23:52;5.20;99.90
16408;DHT22;8313;49.894;8.084;2023-02-01T06:26:19;5.20;99.90
16408;DHT22;8313;49.894;8.084;2023-02-01T06:28:45;5.20;99.90
16408;DHT22;8313;49.894;8.084;2023-02-01T06:31:11;5.10;99.90
16408;DHT22;8313;49.894;8.084;2023-02-01T06:33:37;5.20;99.90
16408;DHT22;8313;49.894;8.084;2023-02-01T06:36:05;5.10;99.90
16408;DHT22;8313;49.894;8.084;2023-02-01T06:38:32;5.20;99.90
16408;DHT22;8313;49.894;8.084;2023-02-01T06:41:00;5.10;99.90
16408;DHT22;8313;49.894;8.084;2023-02-01T06:43:27;5.00;99.90
16408;DHT22;8313;49.894;8.084;2023-02-01T06:45:53;5.00;99.90
16408;DHT22;8313;49.894;8.084;2023-02-01T06:48:19;5.00;99.90
16408;DHT22;8313;49.894;8.084;2023-02-01T06:50:44;5.00;99.90
16408;DHT22;8313;49.894;8.084;2023-02-01T06:53:10;5.00;99.90
16408;DHT22;8313;49.894;8.084;2023-02-01T06:55:36;4.90;99.90
16408;DHT22;8313;49.894;8.084;2023-02-01T06:58:01;4.80;99.90
16408;DHT22;8313;49.894;8.084;2023-02-01T07:00:28;4.80;99.90
16408;DHT22;8313;49.894;8.084;2023-02-01T07:02:54;4.80;99.90
16408;DHT22;8313;49.894;8.084;2023-02-01T07:05:20;4.80;99.90
16408;DHT22;8313;49.894;8.084;2023-02-01T07:07:46;4.80;99.90
16408;DHT22;8313;49.894;8.084;2023-02-01T07:10:13;4.80;99.90
16408;DHT22;8313;49.894;8.084;2023-02-01T07:12:39;4.70;99.90
16408;DHT22;8313;49.894;8.084;2023-02-01T07:15:05;4.80;99.90
16408;DHT22;8313;49.894;8.084;2023-02-01T07:17:31;4.70;99.90
16408;DHT22;8313;49.894;8.084;2023-02-01T07:19:57;4.80;99.90
16408;DHT22;8313;49.894;8.084;2023-02-01T07:22:25;4.80;99.90
16408;DHT22;8313;49.894;8.084;2023-02-01T07:24:51;4.70;99.90
16408;DHT22;8313;49.894;8.084;2023-02-01T07:27:17;4.80;99.90
16408;DHT22;8313;49.894;8.084;2023-02-01T07:29:42;4.80;99.90
16408;DHT22;8313;49.894;8.084;2023-02-01T07:32:08;4.80;99.90
16408;DHT22;8313;49.894;8.084;2023-02-01T07:34:34;4.80;99.90
16408;DHT22;8313;49.894;8.084;2023-02-01T07:37:00;4.80;99.90
16408;DHT22;8313;49.894;8.084;2023-02-01T07:39:26;4.90;99.90
16408;DHT22;8313;49.894;8.084;2023-02-01T07:41:53;4.80;99.90
16408;DHT22;8313;49.894;8.084;2023-02-01T07:44:19;4.80;99.90
16408;DHT22;8313;49.894;8.084;2023-02-01T07:46:49;4.90;99.90
16408;DHT22;8313;49.894;8.084;2023-02-01T07:49:14;4.90;99.90
16408;DHT22;8313;49.894;8.084;2023-02-01T07:51:40;4.90;99.90
16408;DHT22;8313;49.894;8.084;2023-02-01T07:54:06;4.90;99.90
16408;DHT22;8313;49.894;8.084;2023-02-01T07:56:31;4.90;99.90
16408;DHT22;8313;49.894;8.084;2023-02-01T07:58:57;5.00;99.90
16408;DHT22;8313;49.894;8.084;2023-02-01T08:01:26;5.00;99.90
16408;DHT22;8313;49.894;8.084;2023-02-01T08:03:55;5.00;99.90
16408;DHT22;8313;49.894;8.084;2023-02-01T08:06:22;5.10;99.90
16408;DHT22;8313;49.894;8.084;2023-02-01T08:08:49;5.00;99.90
16408;DHT22;8313;49.894;8.084;2023-02-01T08:11:16;5.10;99.90
16408;DHT22;8313;49.894;8.084;2023-02-01T08:13:42;5.10;99.90
16408;DHT22;8313;49.894;8.084;2023-02-01T08:16:09;5.10;99.90
16408;DHT22;8313;49.894;8.084;2023-02-01T08:18:36;5.20;99.90
16408;DHT22;8313;49.894;8.084;2023-02-01T08:23:43;5.30;99.90
16408;DHT22;8313;49.894;8.084;2023-02-01T08:28:49;5.40;99.90
16408;DHT22;8313;49.894;8.084;2023-02-01T08:31:17;5.40;99.90
16408;DHT22;8313;49.894;8.084;2023-02-01T08:33:47;5.40;99.90
16408;DHT22;8313;49.894;8.084;2023-02-01T08:36:13;5.40;99.90
16408;DHT22;8313;49.894;8.084;2023-02-01T08:38:40;5.40;99.90
16408;DHT22;8313;49.894;8.084;2023-02-01T08:41:11;5.50;99.90
16408;DHT22;8313;49.894;8.084;2023-02-01T08:43:37;5.50;99.90
16408;DHT22;8313;49.894;8.084;2023-02-01T08:46:04;5.60;99.90
16408;DHT22;8313;49.894;8.084;2023-02-01T08:48:30;5.60;99.90
16408;DHT22;8313;49.894;8.084;2023-02-01T08:50:56;5.60;99.90
16408;DHT22;8313;49.894;8.084;2023-02-01T08:53:22;5.60;99.90
16408;DHT22;8313;49.894;8.084;2023-02-01T08:55:48;5.60;99.90
16408;DHT22;8313;49.894;8.084;2023-02-01T08:58:14;5.60;99.90
16408;DHT22;8313;49.894;8.084;2023-02-01T09:00:43;5.60;99.90
16408;DHT22;8313;49.894;8.084;2023-02-01T09:03:10;5.70;99.90
16408;DHT22;8313;49.894;8.084;2023-02-01T09:05:37;5.70;99.90
16408;DHT22;8313;49.894;8.084;2023-02-01T09:08:02;5.70;99.90
16408;DHT22;8313;49.894;8.084;2023-02-01T09:10:28;5.70;99.90
16408;DHT22;8313;49.894;8.084;2023-02-01T09:12:54;5.80;99.90
16408;DHT22;8313;49.894;8.084;2023-02-01T09:15:19;5.80;99.90
16408;DHT22;8313;49.894;8.084;2023-02-01T09:17:45;5.80;99.90
16408;DHT22;8313;49.894;8.084;2023-02-01T09:20:11;5.80;99.90
16408;DHT22;8313;49.894;8.084;2023-02-01T09:22:37;5.80;99.90
16408;DHT22;8313;49.894;8.084;2023-02-01T09:25:02;5.80;99.90
16408;DHT22;8313;49.894;8.084;2023-02-01T09:27:28;5.80;99.90
16408;DHT22;8313;49.894;8.084;2023-02-01T09:29:54;5.80;99.90
16408;DHT22;8313;49.894;8.084;2023-02-01T09:32:21;5.80;99.90
16408;DHT22;8313;49.894;8.084;2023-02-01T09:34:48;5.80;99.90
16408;DHT22;8313;49.894;8.084;2023-02-01T09:37:14;5.80;99.90
16408;DHT22;8313;49.894;8.084;2023-02-01T09:39:40;5.80;99.90
16408;DHT22;8313;49.894;8.084;2023-02-01T09:47:29;5.90;99.90
16408;DHT22;8313;49.894;8.084;2023-02-01T09:52:36;6.00;99.90
16408;DHT22;8313;49.894;8.084;2023-02-01T09:55:16;6.00;99.90
16408;DHT22;8313;49.894;8.084;2023-02-01T09:57:45;6.00;99.90
16408;DHT22;8313;49.894;8.084;2023-02-01T10:00:20;6.00;99.90
16408;DHT22;8313;49.894;8.084;2023-02-01T10:02:50;6.00;99.90
16408;DHT22;8313;49.894;8.084;2023-02-01T10:05:22;6.10;99.90
16408;DHT22;8313;49.894;8.084;2023-02-01T10:08:04;6.10;99.90
16408;DHT22;8313;49.894;8.084;2023-02-01T10:16:13;6.10;99.90
16408;DHT22;8313;49.894;8.084;2023-02-01T10:19:14;6.20;99.90
16408;DHT22;8313;49.894;8.084;2023-02-01T10:22:02;6.20;99.90
16408;DHT22;8313;49.894;8.084;2023-02-01T10:27:35;6.30;99.90
16408;DHT22;8313;49.894;8.084;2023-02-01T10:30:22;6.20;99.90
16408;DHT22;8313;49.894;8.084;2023-02-01T10:32:54;6.30;99.90
16408;DHT22;8313;49.894;8.084;2023-02-01T10:35:29;6.30;99.90
16408;DHT22;8313;49.894;8.084;2023-02-01T10:38:00;6.30;99.90
16408;DHT22;8313;49.894;8.084;2023-02-01T10:40:27;6.30;99.90
16408;DHT22;8313;49.894;8.084;2023-02-01T10:42:56;6.30;99.90
16408;DHT22;8313;49.894;8.084;2023-02-01T10:45:25;6.30;99.90
16408;DHT22;8313;49.894;8.084;2023-02-01T10:47:53;6.30;99.90
16408;DHT22;8313;49.894;8.084;2023-02-01T10:53:33;6.30;99.90
16408;DHT22;8313;49.894;8.084;2023-02-01T10:55:56;6.30;99.90
16408;DHT22;8313;49.894;8.084;2023-02-01T10:58:30;6.20;99.90
16408;DHT22;8313;49.894;8.084;2023-02-01T11:01:06;6.20;99.90
16408;DHT22;8313;49.894;8.084;2023-02-01T11:03:39;6.20;99.90
16408;DHT22;8313;49.894;8.084;2023-02-01T11:08:51;6.20;99.90
16408;DHT22;8313;49.894;8.084;2023-02-01T11:11:19;6.20;99.90
16408;DHT22;8313;49.894;8.084;2023-02-01T11:13:58;6.20;99.90
16408;DHT22;8313;49.894;8.084;2023-02-01T11:16:35;6.10;99.90
16408;DHT22;8313;49.894;8.084;2023-02-01T11:19:01;6.10;99.90
16408;DHT22;8313;49.894;8.084;2023-02-01T11:21:27;6.20;99.90
16408;DHT22;8313;49.894;8.084;2023-02-01T11:23:53;6.20;99.90
16408;DHT22;8313;49.894;8.084;2023-02-01T11:26:24;6.10;99.90
16408;DHT22;8313;49.894;8.084;2023-02-01T11:29:05;6.20;99.90
16408;DHT22;8313;49.894;8.084;2023-02-01T11:31:35;6.20;99.90
16408;DHT22;8313;49.894;8.084;2023-02-01T11:34:13;6.20;99.90
16408;DHT22;8313;49.894;8.084;2023-02-01T11:36:40;6.20;99.90
16408;DHT22;8313;49.894;8.084;2023-02-01T11:41:41;6.20;99.90
16408;DHT22;8313;49.894;8.084;2023-02-01T11:44:20;6.20;99.90
16408;DHT22;8313;49.894;8.084;2023-02-01T11:46:47;6.20;99.90
16408;DHT22;8313;49.894;8.084;2023-02-01T11:57:12;6.20;99.90
16408;DHT22;8313;49.894;8.084;2023-02-01T12:00:05;6.20;99.90
16408;DHT22;8313;49.894;8.084;2023-02-01T12:16:17;6.30;99.90
16408;DHT22;8313;49.894;8.084;2023-02-01T12:27:22;6.40;99.90
16408;DHT22;8313;49.894;8.084;2023-02-01T12:46:49;6.50;99.90
16408;DHT22;8313;49.894;8.084;2023-02-01T12:49:37;6.50;99.90
16408;DHT22;8313;49.894;8.084;2023-02-01T12:52:10;6.50;99.90
16408;DHT22;8313;49.894;8.084;2023-02-01T12:54:46;6.50;99.90
16408;DHT22;8313;49.894;8.084;2023-02-01T12:57:17;6.50;99.90
16408;DHT22;8313;49.894;8.084;2023-02-01T13:05:27;6.50;99.90
16408;DHT22;8313;49.894;8.084;2023-02-01T13:10:48;6.50;99.90
16408;DHT22;8313;49.894;8.084;2023-02-01T13:13:31;6.50;99.90
16408;DHT22;8313;49.894;8.084;2023-02-01T13:18:51;6.50;99.90
16408;DHT22;8313;49.894;8.084;2023-02-01T13:21:26;6.50;99.90
16408;DHT22;8313;49.894;8.084;2023-02-01T13:23:53;6.50;99.90
16408;DHT22;8313;49.894;8.084;2023-02-01T13:26:19;6.50;99.90
16408;DHT22;8313;49.894;8.084;2023-02-01T13:37:23;6.50;99.90
16408;DHT22;8313;49.894;8.084;2023-02-01T13:43:04;6.50;99.90
16408;DHT22;8313;49.894;8.084;2023-02-01T13:45:34;6.50;99.90
16408;DHT22;8313;49.894;8.084;2023-02-01T13:48:04;6.50;99.90
16408;DHT22;8313;49.894;8.084;2023-02-01T13:50:32;6.60;99.90
16408;DHT22;8313;49.894;8.084;2023-02-01T13:55:39;6.60;99.90
16408;DHT22;8313;49.894;8.084;2023-02-01T14:03:57;6.60;99.90
16408;DHT22;8313;49.894;8.084;2023-02-01T14:15:24;6.60;99.90
16408;DHT22;8313;49.894;8.084;2023-02-01T14:17:50;6.60;99.90
16408;DHT22;8313;49.894;8.084;2023-02-01T14:20:41;6.60;99.90
16408;DHT22;8313;49.894;8.084;2023-02-01T14:23:17;6.60;99.90
16408;DHT22;8313;49.894;8.084;2023-02-01T14:25:45;6.60;99.90
16408;DHT22;8313;49.894;8.084;2023-02-01T14:28:25;6.60;99.90
16408;DHT22;8313;49.894;8.084;2023-02-01T14:30:53;6.60;99.90
16408;DHT22;8313;49.894;8.084;2023-02-01T14:33:22;6.70;99.90
16408;DHT22;8313;49.894;8.084;2023-02-01T14:38:31;6.70;99.90
16408;DHT22;8313;49.894;8.084;2023-02-01T14:41:23;6.60;99.90
16408;DHT22;8313;49.894;8.084;2023-02-01T14:52:44;6.70;99.90
16408;DHT22;8313;49.894;8.084;2023-02-01T14:57:43;6.70;99.90
16408;DHT22;8313;49.894;8.084;2023-02-01T15:00:26;6.70;99.90
16408;DHT22;8313;49.894;8.084;2023-02-01T15:02:53;6.70;99.90
16408;DHT22;8313;49.894;8.084;2023-02-01T15:05:25;6.70;99.90
16408;DHT22;8313;49.894;8.084;2023-02-01T15:07:52;6.70;99.90
16408;DHT22;8313;49.894;8.084;2023-02-01T15:10:18;6.80;99.90
16408;DHT22;8313;49.894;8.084;2023-02-01T15:12:45;6.70;99.90
16408;DHT22;8313;49.894;8.084;2023-02-01T15:15:22;6.80;99.90
16408;DHT22;8313;49.894;8.084;2023-02-01T15:17:58;6.80;99.90
16408;DHT22;8313;49.894;8.084;2023-02-01T15:20:26;6.80;99.90
16408;DHT22;8313;49.894;8.084;2023-02-01T15:22:59;6.80;99.90
16408;DHT22;8313;49.894;8.084;2023-02-01T15:25:36;6.80;99.90
16408;DHT22;8313;49.894;8.084;2023-02-01T15:28:04;6.80;99.90
16408;DHT22;8313;49.894;8.084;2023-02-01T15:30:33;6.80;99.90
16408;DHT22;8313;49.894;8.084;2023-02-01T15:33:18;6.80;99.90
16408;DHT22;8313;49.894;8.084;2023-02-01T15:35:49;6.80;99.90
16408;DHT22;8313;49.894;8.084;2023-02-01T15:41:16;6.80;99.90
16408;DHT22;8313;49.894;8.084;2023-02-01T15:43:49;6.90;99.90
16408;DHT22;8313;49.894;8.084;2023-02-01T15:46:39;6.90;99.90
16408;DHT22;8313;49.894;8.084;2023-02-01T15:49:05;6.90;99.90
16408;DHT22;8313;49.894;8.084;2023-02-01T15:51:44;6.90;99.90
16408;DHT22;8313;49.894;8.084;2023-02-01T15:54:20;6.90;99.90
16408;DHT22;8313;49.894;8.084;2023-02-01T15:56:55;6.90;99.90
16408;DHT22;8313;49.894;8.084;2023-02-01T15:59:24;6.90;99.90
16408;DHT22;8313;49.894;8.084;2023-02-01T16:01:53;6.90;99.90
16408;DHT22;8313;49.894;8.084;2023-02-01T16:06:51;6.80;99.90
16408;DHT22;8313;49.894;8.084;2023-02-01T16:09:19;6.80;99.90
16408;DHT22;8313;49.894;8.084;2023-02-01T16:11:58;6.80;99.90
16408;DHT22;8313;49.894;8.084;2023-02-01T16:14:28;6.80;99.90
16408;DHT22;8313;49.894;8.084;2023-02-01T16:16:56;6.80;99.90
16408;DHT22;8313;49.894;8.084;2023-02-01T16:19:22;6.80;99.90
16408;DHT22;8313;49.894;8.084;2023-02-01T16:21:56;6.80;99.90
16408;DHT22;8313;49.894;8.084;2023-02-01T16:24:22;6.80;99.90
16408;DHT22;8313;49.894;8.084;2023-02-01T16:26:50;6.80;99.90
16408;DHT22;8313;49.894;8.084;2023-02-01T16:29:15;6.80;99.90
16408;DHT22;8313;49.894;8.084;2023-02-01T16:31:42;6.70;99.90
16408;DHT22;8313;49.894;8.084;2023-02-01T16:34:14;6.80;99.90
16408;DHT22;8313;49.894;8.084;2023-02-01T16:36:42;6.70;99.90
16408;DHT22;8313;49.894;8.084;2023-02-01T16:39:11;6.70;99.90
16408;DHT22;8313;49.894;8.084;2023-02-01T16:41:38;6.70;99.90
16408;DHT22;8313;49.894;8.084;2023-02-01T16:44:04;6.70;99.90
16408;DHT22;8313;49.894;8.084;2023-02-01T16:46:34;6.70;99.90
16408;DHT22;8313;49.894;8.084;2023-02-01T16:49:01;6.70;99.90
16408;DHT22;8313;49.894;8.084;2023-02-01T16:51:30;6.70;99.90
16408;DHT22;8313;49.894;8.084;2023-02-01T16:53:59;6.70;99.90
16408;DHT22;8313;49.894;8.084;2023-02-01T16:56:32;6.70;99.90
16408;DHT22;8313;49.894;8.084;2023-02-01T16:58:59;6.70;99.90
16408;DHT22;8313;49.894;8.084;2023-02-01T17:01:25;6.60;99.90
16408;DHT22;8313;49.894;8.084;2023-02-01T17:03:51;6.60;99.90
16408;DHT22;8313;49.894;8.084;2023-02-01T17:06:19;6.60;99.90
16408;DHT22;8313;49.894;8.084;2023-02-01T17:08:50;6.50;99.90
16408;DHT22;8313;49.894;8.084;2023-02-01T17:11:17;6.50;99.90
16408;DHT22;8313;49.894;8.084;2023-02-01T17:13:43;6.50;99.90
16408;DHT22;8313;49.894;8.084;2023-02-01T17:16:29;6.40;99.90
16408;DHT22;8313;49.894;8.084;2023-02-01T17:19:02;6.40;99.90
16408;DHT22;8313;49.894;8.084;2023-02-01T17:21:30;6.30;99.90
16408;DHT22;8313;49.894;8.084;2023-02-01T17:23:59;6.30;99.90
16408;DHT22;8313;49.894;8.084;2023-02-01T17:26:26;6.30;99.90
16408;DHT22;8313;49.894;8.084;2023-02-01T17:28:52;6.30;99.90
16408;DHT22;8313;49.894;8.084;2023-02-01T17:31:17;6.20;99.90
16408;DHT22;8313;49.894;8.084;2023-02-01T17:33:44;6.20;99.90
16408;DHT22;8313;49.894;8.084;2023-02-01T17:36:15;6.10;99.90
16408;DHT22;8313;49.894;8.084;2023-02-01T17:38:43;6.10;99.90
16408;DHT22;8313;49.894;8.084;2023-02-01T17:41:11;6.10;99.90
16408;DHT22;8313;49.894;8.084;2023-02-01T17:43:37;6.10;99.90
16408;DHT22;8313;49.894;8.084;2023-02-01T17:46:15;6.10;99.90
16408;DHT22;8313;49.894;8.084;2023-02-01T17:48:43;6.00;99.90
16408;DHT22;8313;49.894;8.084;2023-02-01T17:51:18;6.00;99.90
16408;DHT22;8313;49.894;8.084;2023-02-01T17:53:45;6.10;99.90
16408;DHT22;8313;49.894;8.084;2023-02-01T17:56:20;6.10;99.90
16408;DHT22;8313;49.894;8.084;2023-02-01T17:58:46;6.10;99.90
16408;DHT22;8313;49.894;8.084;2023-02-01T18:01:21;6.00;99.90
16408;DHT22;8313;49.894;8.084;2023-02-01T18:03:47;6.00;99.90
16408;DHT22;8313;49.894;8.084;2023-02-01T18:06:18;6.00;99.90
16408;DHT22;8313;49.894;8.084;2023-02-01T18:08:45;6.00;99.90
16408;DHT22;8313;49.894;8.084;2023-02-01T18:11:13;6.00;99.90
16408;DHT22;8313;49.894;8.084;2023-02-01T18:13:39;6.00;99.90
16408;DHT22;8313;49.894;8.084;2023-02-01T18:16:05;6.00;99.90
16408;DHT22;8313;49.894;8.084;2023-02-01T18:18:31;5.90;99.90
16408;DHT22;8313;49.894;8.084;2023-02-01T18:20:58;5.90;99.90
16408;DHT22;8313;49.894;8.084;2023-02-01T18:23:24;5.90;99.90
16408;DHT22;8313;49.894;8.084;2023-02-01T18:25:50;5.90;99.90
16408;DHT22;8313;49.894;8.084;2023-02-01T18:28:18;5.90;99.90
16408;DHT22;8313;49.894;8.084;2023-02-01T18:30:48;5.90;99.90
16408;DHT22;8313;49.894;8.084;2023-02-01T18:33:17;5.90;99.90
16408;DHT22;8313;49.894;8.084;2023-02-01T18:35:43;5.90;99.90
16408;DHT22;8313;49.894;8.084;2023-02-01T18:38:09;5.90;99.90
16408;DHT22;8313;49.894;8.084;2023-02-01T18:40:53;5.90;99.90
16408;DHT22;8313;49.894;8.084;2023-02-01T18:43:21;6.00;99.90
16408;DHT22;8313;49.894;8.084;2023-02-01T18:45:47;6.00;99.90
16408;DHT22;8313;49.894;8.084;2023-02-01T18:48:14;6.00;99.90
16408;DHT22;8313;49.894;8.084;2023-02-01T18:50:42;6.00;99.90
16408;DHT22;8313;49.894;8.084;2023-02-01T18:55:39;6.00;99.90
16408;DHT22;8313;49.894;8.084;2023-02-01T18:58:05;6.00;99.90
16408;DHT22;8313;49.894;8.084;2023-02-01T19:00:32;6.00;99.90
16408;DHT22;8313;49.894;8.084;2023-02-01T19:02:59;6.00;99.90
16408;DHT22;8313;49.894;8.084;2023-02-01T19:05:26;6.00;99.90
16408;DHT22;8313;49.894;8.084;2023-02-01T19:07:52;6.00;99.90
16408;DHT22;8313;49.894;8.084;2023-02-01T19:10:20;6.00;99.90
16408;DHT22;8313;49.894;8.084;2023-02-01T19:12:47;6.10;99.90
16408;DHT22;8313;49.894;8.084;2023-02-01T19:15:13;6.00;99.90
16408;DHT22;8313;49.894;8.084;2023-02-01T19:17:45;6.00;99.90
16408;DHT22;8313;49.894;8.084;2023-02-01T19:20:17;6.00;99.90
16408;DHT22;8313;49.894;8.084;2023-02-01T19:22:43;6.00;99.90